sensor_id;sensor_type;location;lat;lon;timestamp;pressure;altitude;pressure_sealevel;temperature;humidity
49341;BME280;35209;51.050;13.678;2023-02-28T00:03:21;101280.56;;;-0.90;100.00
49341;BME280;35209;51.050;13.678;2023-02-28T00:08:23;101290.19;;;-0.86;100.00
49341;BME280;35209;51.050;13.678;2023-02-28T00:13:24;101281.56;;;-0.87;99.97
49341;BME280;35209;51.050;13.678;2023-02-28T00:18:26;101288.22;;;-0.93;99.74
49341;BME280;35209;51.050;13.678;2023-02-28T00:23:32;101275.41;;;-0.90;99.47
49341;BME280;35209;51.050;13.678;2023-02-28T00:28:34;101274.56;;;-0.65;98.12
49341;BME280;35209;51.050;13.678;2023-02-28T00:33:35;101276.50;;;-0.58;95.71
49341;BME280;35209;51.050;13.678;2023-02-28T00:38:38;101272.63;;;-0.18;94.10
49341;BME280;35209;51.050;13.678;2023-02-28T00:43:40;101275.84;;;-0.26;92.85
49341;BME280;35209;51.050;13.678;2023-02-28T00:48:43;101276.88;;;-0.73;95.08
49341;BME280;35209;51.050;13.678;2023-02-28T00:53:45;101285.34;;;-0.52;95.72
49341;BME280;35209;51.050;13.678;2023-02-28T00:58:47;101278.13;;;-0.87;95.98
49341;BME280;35209;51.050;13.678;2023-02-28T01:03:48;101277.28;;;-0.86;96.35
49341;BME280;35209;51.050;13.678;2023-02-28T01:08:50;101269.91;;;-1.01;94.89
49341;BME280;35209;51.050;13.678;2023-02-28T01:13:52;101275.69;;;-0.83;93.02
49341;BME280;35209;51.050;13.678;2023-02-28T01:18:54;101269.16;;;-0.71;91.66
49341;BME280;35209;51.050;13.678;2023-02-28T01:23:56;101273.94;;;-0.84;91.70
49341;BME280;35209;51.050;13.678;2023-02-28T01:28:59;101262.28;;;-0.71;90.51
49341;BME280;35209;51.050;13.678;2023-02-28T01:34:01;101266.13;;;-0.85;91.83
49341;BME280;35209;51.050;13.678;2023-02-28T01:39:03;101265.38;;;-0.83;91.45
49341;BME280;35209;51.050;13.678;2023-02-28T01:49:46;101270.69;;;-1.02;92.85
49341;BME280;35209;51.050;13.678;2023-02-28T01:54:55;101259.47;;;-1.04;93.55
49341;BME280;35209;51.050;13.678;2023-02-28T02:00:00;101257.44;;;-1.13;94.37
49341;BME280;35209;51.050;13.678;2023-02-28T02:05:19;101253.41;;;-1.05;93.87
49341;BME280;35209;51.050;13.678;2023-02-28T02:10:29;101251.44;;;-1.12;94.29
49341;BME280;35209;51.050;13.678;2023-02-28T02:15:39;101250.41;;;-1.17;94.95
49341;BME280;35209;51.050;13.678;2023-02-28T02:26:03;101240.47;;;-1.06;95.47
49341;BME280;35209;51.050;13.678;2023-02-28T02:31:21;101244.66;;;-1.10;95.81
49341;BME280;35209;51.050;13.678;2023-02-28T02:36:35;101250.00;;;-1.04;96.57
49341;BME280;35209;51.050;13.678;2023-02-28T02:41:46;101242.06;;;-1.10;97.05
49341;BME280;35209;51.050;13.678;2023-02-28T02:46:58;101248.25;;;-1.29;98.80
49341;BME280;35209;51.050;13.678;2023-02-28T02:52:07;101250.00;;;-1.04;97.25
49341;BME280;35209;51.050;13.678;2023-02-28T02:57:16;101245.78;;;-1.02;95.84
49341;BME280;35209;51.050;13.678;2023-02-28T03:02:21;101257.28;;;-1.17;96.88
49341;BME280;35209;51.050;13.678;2023-02-28T03:07:25;101254.75;;;-1.16;96.55
49341;BME280;35209;51.050;13.678;2023-02-28T03:12:41;101251.44;;;-1.12;95.85
49341;BME280;35209;51.050;13.678;2023-02-28T03:17:56;101252.22;;;-1.14;96.35
49341;BME280;35209;51.050;13.678;2023-02-28T03:23:27;101247.88;;;-1.15;95.69
49341;BME280;35209;51.050;13.678;2023-02-28T03:28:58;101247.56;;;-1.24;95.84
49341;BME280;35209;51.050;13.678;2023-02-28T03:34:29;101244.94;;;-1.26;95.68
49341;BME280;35209;51.050;13.678;2023-02-28T03:39:37;101253.75;;;-1.43;96.59
49341;BME280;35209;51.050;13.678;2023-02-28T03:44:53;101256.38;;;-1.42;96.56
49341;BME280;35209;51.050;13.678;2023-02-28T03:50:08;101253.22;;;-1.59;98.28
49341;BME280;35209;51.050;13.678;2023-02-28T03:55:14;101255.63;;;-1.63;97.98
49341;BME280;35209;51.050;13.678;2023-02-28T04:00:38;101265.59;;;-1.72;98.45
49341;BME280;35209;51.050;13.678;2023-02-28T04:05:52;101266.56;;;-1.69;98.35
49341;BME280;35209;51.050;13.678;2023-02-28T04:11:27;101267.25;;;-1.73;98.53
49341;BME280;35209;51.050;13.678;2023-02-28T04:16:34;101275.34;;;-1.86;99.00
49341;BME280;35209;51.050;13.678;2023-02-28T04:21:38;101273.03;;;-2.03;99.57
49341;BME280;35209;51.050;13.678;2023-02-28T04:26:43;101277.69;;;-2.15;100.00
49341;BME280;35209;51.050;13.678;2023-02-28T04:31:45;101283.25;;;-2.04;100.00
49341;BME280;35209;51.050;13.678;2023-02-28T04:36:48;101289.31;;;-2.04;99.62
49341;BME280;35209;51.050;13.678;2023-02-28T04:42:12;101287.19;;;-2.14;100.00
49341;BME280;35209;51.050;13.678;2023-02-28T04:47:14;101287.63;;;-2.24;100.00
49341;BME280;35209;51.050;13.678;2023-02-28T04:52:16;101283.03;;;-2.31;100.00
49341;BME280;35209;51.050;13.678;2023-02-28T04:57:17;101286.81;;;-2.23;99.70
49341;BME280;35209;51.050;13.678;2023-02-28T05:02:19;101289.72;;;-2.36;99.88
49341;BME280;35209;51.050;13.678;2023-02-28T05:07:22;101285.38;;;-2.58;100.00
49341;BME280;35209;51.050;13.678;2023-02-28T05:12:24;101293.28;;;-2.33;99.80
49341;BME280;35209;51.050;13.678;2023-02-28T05:17:26;101297.13;;;-2.23;99.04
49341;BME280;35209;51.050;13.678;2023-02-28T05:22:28;101297.38;;;-2.38;99.87
49341;BME280;35209;51.050;13.678;2023-02-28T05:27:29;101304.16;;;-2.61;100.00
49341;BME280;35209;51.050;13.678;2023-02-28T05:32:31;101301.22;;;-2.89;100.00
49341;BME280;35209;51.050;13.678;2023-02-28T05:37:32;101302.19;;;-3.07;100.00
49341;BME280;35209;51.050;13.678;2023-02-28T05:42:34;101300.31;;;-2.91;100.00
49341;BME280;35209;51.050;13.678;2023-02-28T05:47:36;101304.75;;;-3.07;100.00
49341;BME280;35209;51.050;13.678;2023-02-28T05:52:37;101311.31;;;-2.94;100.00
49341;BME280;35209;51.050;13.678;2023-02-28T05:57:39;101310.47;;;-3.14;100.00
49341;BME280;35209;51.050;13.678;2023-02-28T06:02:41;101313.09;;;-3.12;100.00
49341;BME280;35209;51.050;13.678;2023-02-28T06:07:43;101315.94;;;-3.06;100.00
49341;BME280;35209;51.050;13.678;2023-02-28T06:12:45;101324.03;;;-2.97;100.00
49341;BME280;35209;51.050;13.678;2023-02-28T06:17:47;101318.03;;;-2.78;100.00
49341;BME280;35209;51.050;13.678;2023-02-28T06:22:49;101330.00;;;-2.98;100.00
49341;BME280;35209;51.050;13.678;2023-02-28T06:27:52;101337.53;;;-2.62;100.00
49341;BME280;35209;51.050;13.678;2023-02-28T06:32:54;101338.22;;;-1.83;100.00
49341;BME280;35209;51.050;13.678;2023-02-28T06:37:56;101353.41;;;-0.49;100.00
49341;BME280;35209;51.050;13.678;2023-02-28T06:42:58;101366.69;;;0.41;95.69
49341;BME280;35209;51.050;13.678;2023-02-28T06:47:59;101364.78;;;0.35;91.81
49341;BME280;35209;51.050;13.678;2023-02-28T06:53:01;101376.66;;;-0.24;86.63
49341;BME280;35209;51.050;13.678;2023-02-28T06:58:04;101373.75;;;-0.59;87.74
49341;BME280;35209;51.050;13.678;2023-02-28T07:03:16;101387.56;;;-1.29;88.12
49341;BME280;35209;51.050;13.678;2023-02-28T07:08:18;101382.44;;;-1.94;92.08
49341;BME280;35209;51.050;13.678;2023-02-28T07:13:21;101393.53;;;-1.74;93.33
49341;BME280;35209;51.050;13.678;2023-02-28T07:18:23;101392.78;;;-1.72;92.31
49341;BME280;35209;51.050;13.678;2023-02-28T07:23:25;101397.75;;;-1.97;95.96
49341;BME280;35209;51.050;13.678;2023-02-28T07:28:27;101393.63;;;-2.15;98.65
49341;BME280;35209;51.050;13.678;2023-02-28T07:33:29;101389.69;;;-1.41;98.83
49341;BME280;35209;51.050;13.678;2023-02-28T07:38:33;101391.84;;;-1.29;94.22
49341;BME280;35209;51.050;13.678;2023-02-28T07:43:35;101395.69;;;-0.95;92.77
49341;BME280;35209;51.050;13.678;2023-02-28T07:48:37;101399.91;;;-0.49;92.06
49341;BME280;35209;51.050;13.678;2023-02-28T07:53:39;101393.03;;;-0.49;88.53
49341;BME280;35209;51.050;13.678;2023-02-28T07:58:41;101396.00;;;-0.38;87.15
49341;BME280;35209;51.050;13.678;2023-02-28T08:03:42;101396.22;;;-0.07;84.58
49341;BME280;35209;51.050;13.678;2023-02-28T08:08:44;101400.66;;;0.80;76.85
49341;BME280;35209;51.050;13.678;2023-02-28T08:13:46;101408.94;;;0.68;72.75
49341;BME280;35209;51.050;13.678;2023-02-28T08:18:51;101400.84;;;0.58;75.34
49341;BME280;35209;51.050;13.678;2023-02-28T08:23:54;101397.13;;;0.78;73.00
49341;BME280;35209;51.050;13.678;2023-02-28T08:28:55;101401.28;;;0.71;71.79
49341;BME280;35209;51.050;13.678;2023-02-28T08:33:59;101405.31;;;0.92;70.24
49341;BME280;35209;51.050;13.678;2023-02-28T08:39:01;101397.50;;;0.90;70.42
49341;BME280;35209;51.050;13.678;2023-02-28T08:44:02;101404.28;;;0.87;71.85
49341;BME280;35209;51.050;13.678;2023-02-28T08:49:04;101403.03;;;1.03;71.41
49341;BME280;35209;51.050;13.678;2023-02-28T08:54:07;101406.41;;;1.00;70.44
49341;BME280;35209;51.050;13.678;2023-02-28T08:59:09;101403.97;;;1.05;70.23
49341;BME280;35209;51.050;13.678;2023-02-28T09:04:11;101405.97;;;1.15;70.38
49341;BME280;35209;51.050;13.678;2023-02-28T09:09:17;101396.63;;;1.51;70.42
49341;BME280;35209;51.050;13.678;2023-02-28T09:14:19;101398.78;;;1.36;70.86
49341;BME280;35209;51.050;13.678;2023-02-28T09:19:21;101404.88;;;1.68;68.32
49341;BME280;35209;51.050;13.678;2023-02-28T09:24:23;101395.56;;;1.45;62.66
49341;BME280;35209;51.050;13.678;2023-02-28T09:29:25;101403.66;;;1.56;58.97
49341;BME280;35209;51.050;13.678;2023-02-28T09:34:27;101400.72;;;1.43;61.77
49341;BME280;35209;51.050;13.678;2023-02-28T09:39:32;101388.69;;;1.45;59.58
49341;BME280;35209;51.050;13.678;2023-02-28T09:44:41;101388.28;;;1.63;57.74
49341;BME280;35209;51.050;13.678;2023-02-28T09:49:46;101390.84;;;1.62;56.60
49341;BME280;35209;51.050;13.678;2023-02-28T09:54:49;101397.31;;;1.77;53.73
49341;BME280;35209;51.050;13.678;2023-02-28T10:00:30;101392.81;;;1.70;57.50
49341;BME280;35209;51.050;13.678;2023-02-28T10:05:38;101393.16;;;1.84;55.89
49341;BME280;35209;51.050;13.678;2023-02-28T10:10:48;101395.66;;;2.14;53.43
49341;BME280;35209;51.050;13.678;2023-02-28T10:15:59;101388.50;;;2.04;51.09
49341;BME280;35209;51.050;13.678;2023-02-28T10:21:03;101393.72;;;2.43;51.94
49341;BME280;35209;51.050;13.678;2023-02-28T10:26:12;101389.53;;;2.48;51.11
49341;BME280;35209;51.050;13.678;2023-02-28T10:31:18;101396.47;;;2.49;52.36
49341;BME280;35209;51.050;13.678;2023-02-28T10:36:21;101400.81;;;2.90;52.66
49341;BME280;35209;51.050;13.678;2023-02-28T10:41:29;101399.75;;;2.42;51.42
49341;BME280;35209;51.050;13.678;2023-02-28T10:46:33;101398.75;;;1.99;52.34
49341;BME280;35209;51.050;13.678;2023-02-28T10:51:39;101397.94;;;2.03;54.45
49341;BME280;35209;51.050;13.678;2023-02-28T10:56:42;101391.13;;;1.72;53.63
49341;BME280;35209;51.050;13.678;2023-02-28T11:01:45;101386.66;;;2.36;52.35
49341;BME280;35209;51.050;13.678;2023-02-28T11:07:01;101383.34;;;2.43;53.20
49341;BME280;35209;51.050;13.678;2023-02-28T11:12:05;101372.69;;;2.31;52.46
49341;BME280;35209;51.050;13.678;2023-02-28T11:17:23;101354.59;;;2.34;54.61
49341;BME280;35209;51.050;13.678;2023-02-28T11:22:39;101362.94;;;2.59;52.67
49341;BME280;35209;51.050;13.678;2023-02-28T11:27:52;101359.31;;;2.52;52.88
49341;BME280;35209;51.050;13.678;2023-02-28T11:32:54;101350.94;;;2.64;52.76
49341;BME280;35209;51.050;13.678;2023-02-28T11:37:57;101350.31;;;2.36;52.59
49341;BME280;35209;51.050;13.678;2023-02-28T11:43:07;101346.34;;;2.93;51.90
49341;BME280;35209;51.050;13.678;2023-02-28T11:48:23;101343.69;;;3.35;51.12
49341;BME280;35209;51.050;13.678;2023-02-28T11:59:24;101327.34;;;3.92;49.55
49341;BME280;35209;51.050;13.678;2023-02-28T12:25:58;101328.41;;;4.03;48.66
49341;BME280;35209;51.050;13.678;2023-02-28T12:31:08;101321.41;;;3.99;50.46
49341;BME280;35209;51.050;13.678;2023-02-28T12:36:17;101318.56;;;3.34;50.97
49341;BME280;35209;51.050;13.678;2023-02-28T12:41:42;101323.06;;;2.97;51.59
49341;BME280;35209;51.050;13.678;2023-02-28T12:46:50;101326.88;;;3.15;52.23
49341;BME280;35209;51.050;13.678;2023-02-28T12:51:52;101316.31;;;3.06;51.42
49341;BME280;35209;51.050;13.678;2023-02-28T12:57:18;101317.78;;;2.93;52.56
49341;BME280;35209;51.050;13.678;2023-02-28T13:13:18;101301.47;;;2.58;54.11
49341;BME280;35209;51.050;13.678;2023-02-28T13:18:46;101315.03;;;2.44;52.57
49341;BME280;35209;51.050;13.678;2023-02-28T13:28:59;101309.00;;;2.45;51.66
49341;BME280;35209;51.050;13.678;2023-02-28T13:34:12;101313.53;;;2.56;53.28
49341;BME280;35209;51.050;13.678;2023-02-28T13:50:22;101293.56;;;2.51;51.44
49341;BME280;35209;51.050;13.678;2023-02-28T13:55:36;101284.88;;;2.51;52.16
49341;BME280;35209;51.050;13.678;2023-02-28T14:06:29;101280.66;;;2.55;51.96
49341;BME280;35209;51.050;13.678;2023-02-28T14:11:33;101279.69;;;2.51;51.85
49341;BME280;35209;51.050;13.678;2023-02-28T14:16:45;101268.78;;;2.66;52.48
49341;BME280;35209;51.050;13.678;2023-02-28T14:32:59;101266.19;;;2.67;51.04
49341;BME280;35209;51.050;13.678;2023-02-28T14:38:06;101258.13;;;2.53;51.39
49341;BME280;35209;51.050;13.678;2023-02-28T14:43:22;101260.25;;;2.73;51.05
49341;BME280;35209;51.050;13.678;2023-02-28T14:48:25;101255.53;;;2.53;52.92
49341;BME280;35209;51.050;13.678;2023-02-28T14:53:30;101260.41;;;2.38;52.53
49341;BME280;35209;51.050;13.678;2023-02-28T14:58:36;101258.03;;;2.49;52.90
49341;BME280;35209;51.050;13.678;2023-02-28T15:03:39;101264.09;;;2.49;52.32
49341;BME280;35209;51.050;13.678;2023-02-28T15:08:42;101262.09;;;2.36;52.64
49341;BME280;35209;51.050;13.678;2023-02-28T15:13:46;101256.03;;;2.36;53.18
49341;BME280;35209;51.050;13.678;2023-02-28T15:18:52;101267.59;;;2.51;52.20
49341;BME280;35209;51.050;13.678;2023-02-28T15:23:58;101262.09;;;2.36;52.95
49341;BME280;35209;51.050;13.678;2023-02-28T15:29:13;101264.44;;;2.25;53.23
49341;BME280;35209;51.050;13.678;2023-02-28T15:34:22;101263.63;;;2.26;53.60
49341;BME280;35209;51.050;13.678;2023-02-28T15:39:29;101256.53;;;2.18;53.91
49341;BME280;35209;51.050;13.678;2023-02-28T15:44:33;101258.38;;;2.25;54.66
49341;BME280;35209;51.050;13.678;2023-02-28T15:49:44;101267.59;;;2.11;54.40
49341;BME280;35209;51.050;13.678;2023-02-28T15:54:47;101263.94;;;2.02;55.15
49341;BME280;35209;51.050;13.678;2023-02-28T15:59:57;101270.19;;;2.11;54.55
49341;BME280;35209;51.050;13.678;2023-02-28T16:10:13;101259.41;;;1.92;55.85
49341;BME280;35209;51.050;13.678;2023-02-28T16:15:23;101264.19;;;1.75;56.26
49341;BME280;35209;51.050;13.678;2023-02-28T16:20:29;101264.56;;;1.91;55.92
49341;BME280;35209;51.050;13.678;2023-02-28T16:25:37;101264.09;;;2.09;55.26
49341;BME280;35209;51.050;13.678;2023-02-28T16:30:39;101263.00;;;1.63;56.32
49341;BME280;35209;51.050;13.678;2023-02-28T16:35:41;101264.91;;;1.70;55.57
49341;BME280;35209;51.050;13.678;2023-02-28T16:40:44;101267.41;;;1.65;56.83
49341;BME280;35209;51.050;13.678;2023-02-28T16:45:47;101269.72;;;1.55;57.07
49341;BME280;35209;51.050;13.678;2023-02-28T16:50:49;101259.97;;;1.44;57.30
49341;BME280;35209;51.050;13.678;2023-02-28T16:55:50;101255.75;;;1.15;58.28
49341;BME280;35209;51.050;13.678;2023-02-28T17:00:52;101261.81;;;0.84;59.08
49341;BME280;35209;51.050;13.678;2023-02-28T17:05:54;101265.81;;;0.71;60.04
49341;BME280;35209;51.050;13.678;2023-02-28T17:10:56;101271.50;;;0.59;60.77
49341;BME280;35209;51.050;13.678;2023-02-28T17:15:58;101272.25;;;0.85;62.52
49341;BME280;35209;51.050;13.678;2023-02-28T17:21:01;101271.03;;;0.72;63.43
49341;BME280;35209;51.050;13.678;2023-02-28T17:26:02;101278.91;;;0.47;64.56
49341;BME280;35209;51.050;13.678;2023-02-28T17:31:07;101277.47;;;0.57;67.08
49341;BME280;35209;51.050;13.678;2023-02-28T17:36:29;101282.78;;;0.61;66.38
49341;BME280;35209;51.050;13.678;2023-02-28T17:41:32;101286.44;;;0.68;66.30
49341;BME280;35209;51.050;13.678;2023-02-28T17:46:34;101284.56;;;0.62;66.03
49341;BME280;35209;51.050;13.678;2023-02-28T17:51:36;101273.66;;;0.44;66.68
49341;BME280;35209;51.050;13.678;2023-02-28T17:56:38;101273.50;;;0.39;67.32
49341;BME280;35209;51.050;13.678;2023-02-28T18:01:40;101259.97;;;0.18;68.56
49341;BME280;35209;51.050;13.678;2023-02-28T18:06:43;101260.66;;;0.12;69.35
49341;BME280;35209;51.050;13.678;2023-02-28T18:11:53;101258.91;;;-0.17;70.50
49341;BME280;35209;51.050;13.678;2023-02-28T18:16:55;101260.28;;;-0.27;71.84
49341;BME280;35209;51.050;13.678;2023-02-28T18:21:58;101258.31;;;-0.09;72.02
49341;BME280;35209;51.050;13.678;2023-02-28T18:27:00;101262.09;;;-0.24;71.98
49341;BME280;35209;51.050;13.678;2023-02-28T18:32:01;101263.66;;;-0.30;72.33
49341;BME280;35209;51.050;13.678;2023-02-28T18:37:04;101266.72;;;-0.41;73.07
49341;BME280;35209;51.050;13.678;2023-02-28T18:42:06;101257.63;;;-0.30;72.91
49341;BME280;35209;51.050;13.678;2023-02-28T18:47:08;101266.56;;;-0.46;73.21
49341;BME280;35209;51.050;13.678;2023-02-28T18:52:09;101265.06;;;-0.92;75.41
49341;BME280;35209;51.050;13.678;2023-02-28T18:57:11;101266.47;;;-1.00;77.01
49341;BME280;35209;51.050;13.678;2023-02-28T19:02:13;101262.47;;;-1.16;78.82
49341;BME280;35209;51.050;13.678;2023-02-28T19:07:14;101256.91;;;-1.03;79.66
49341;BME280;35209;51.050;13.678;2023-02-28T19:12:16;101266.69;;;-0.94;80.64
49341;BME280;35209;51.050;13.678;2023-02-28T19:17:20;101262.50;;;-0.90;79.68
49341;BME280;35209;51.050;13.678;2023-02-28T19:22:22;101268.66;;;-0.87;79.00
49341;BME280;35209;51.050;13.678;2023-02-28T19:27:24;101269.47;;;-1.13;79.03
49341;BME280;35209;51.050;13.678;2023-02-28T19:32:26;101275.75;;;-1.29;80.08
49341;BME280;35209;51.050;13.678;2023-02-28T19:37:28;101263.09;;;-1.23;80.22
49341;BME280;35209;51.050;13.678;2023-02-28T19:42:30;101268.31;;;-1.21;79.97
49341;BME280;35209;51.050;13.678;2023-02-28T19:47:33;101269.63;;;-1.33;80.52
49341;BME280;35209;51.050;13.678;2023-02-28T19:52:35;101281.09;;;-1.48;81.43
49341;BME280;35209;51.050;13.678;2023-02-28T19:57:37;101286.31;;;-1.23;81.12
49341;BME280;35209;51.050;13.678;2023-02-28T20:02:40;101284.16;;;-1.11;79.97
49341;BME280;35209;51.050;13.678;2023-02-28T20:07:42;101290.66;;;-1.46;81.92
49341;BME280;35209;51.050;13.678;2023-02-28T20:12:44;101290.53;;;-1.49;83.41
49341;BME280;35209;51.050;13.678;2023-02-28T20:17:46;101294.78;;;-1.27;83.05
49341;BME280;35209;51.050;13.678;2023-02-28T20:22:48;101288.00;;;-1.47;82.80
49341;BME280;35209;51.050;13.678;2023-02-28T20:27:49;101282.50;;;-1.57;82.84
49341;BME280;35209;51.050;13.678;2023-02-28T20:32:51;101291.91;;;-1.81;84.96
49341;BME280;35209;51.050;13.678;2023-02-28T20:37:53;101286.09;;;-1.75;85.63
49341;BME280;35209;51.050;13.678;2023-02-28T20:42:55;101293.13;;;-1.71;85.95
49341;BME280;35209;51.050;13.678;2023-02-28T20:47:57;101293.53;;;-1.83;86.20
49341;BME280;35209;51.050;13.678;2023-02-28T20:52:58;101293.38;;;-2.09;86.71
49341;BME280;35209;51.050;13.678;2023-02-28T20:58:00;101285.56;;;-2.12;87.24
49341;BME280;35209;51.050;13.678;2023-02-28T21:03:02;101296.56;;;-2.16;87.63
49341;BME280;35209;51.050;13.678;2023-02-28T21:08:04;101295.50;;;-2.21;88.15
49341;BME280;35209;51.050;13.678;2023-02-28T21:13:05;101300.94;;;-2.13;88.46
49341;BME280;35209;51.050;13.678;2023-02-28T21:18:07;101295.63;;;-1.95;88.13
49341;BME280;35209;51.050;13.678;2023-02-28T21:23:09;101295.44;;;-1.78;86.29
49341;BME280;35209;51.050;13.678;2023-02-28T21:28:11;101287.78;;;-1.76;85.04
49341;BME280;35209;51.050;13.678;2023-02-28T21:33:13;101280.06;;;-1.98;86.04
49341;BME280;35209;51.050;13.678;2023-02-28T21:38:14;101291.16;;;-1.99;87.21
49341;BME280;35209;51.050;13.678;2023-02-28T21:43:16;101294.06;;;-2.13;87.17
49341;BME280;35209;51.050;13.678;2023-02-28T21:48:18;101287.78;;;-2.42;89.06
49341;BME280;35209;51.050;13.678;2023-02-28T21:53:19;101296.00;;;-2.30;89.37
49341;BME280;35209;51.050;13.678;2023-02-28T21:58:21;101293.38;;;-2.52;90.02
49341;BME280;35209;51.050;13.678;2023-02-28T22:03:23;101292.66;;;-2.69;90.92
49341;BME280;35209;51.050;13.678;2023-02-28T22:08:25;101292.09;;;-2.41;89.77
49341;BME280;35209;51.050;13.678;2023-02-28T22:13:26;101277.78;;;-2.55;90.24
49341;BME280;35209;51.050;13.678;2023-02-28T22:18:28;101281.69;;;-2.65;90.23
49341;BME280;35209;51.050;13.678;2023-02-28T22:23:31;101293.06;;;-2.79;91.84
49341;BME280;35209;51.050;13.678;2023-02-28T22:28:33;101285.47;;;-2.97;91.64
49341;BME280;35209;51.050;13.678;2023-02-28T22:33:35;101278.84;;;-2.92;92.62
49341;BME280;35209;51.050;13.678;2023-02-28T22:38:37;101281.03;;;-3.01;92.65
49341;BME280;35209;51.050;13.678;2023-02-28T22:43:40;101286.50;;;-3.13;93.00
49341;BME280;35209;51.050;13.678;2023-02-28T22:48:42;101290.69;;;-3.15;92.83
49341;BME280;35209;51.050;13.678;2023-02-28T22:53:46;101292.31;;;-2.97;93.40
49341;BME280;35209;51.050;13.678;2023-02-28T22:58:59;101294.28;;;-2.71;92.13
49341;BME280;35209;51.050;13.678;2023-02-28T23:04:01;101291.66;;;-2.72;92.11
49341;BME280;35209;51.050;13.678;2023-02-28T23:09:05;101290.19;;;-2.66;91.00
49341;BME280;35209;51.050;13.678;2023-02-28T23:14:09;101292.53;;;-2.72;90.27
49341;BME280;35209;51.050;13.678;2023-02-28T23:19:14;101301.25;;;-3.09;92.13
49341;BME280;35209;51.050;13.678;2023-02-28T23:24:18;101296.66;;;-3.35;93.17
49341;BME280;35209;51.050;13.678;2023-02-28T23:29:22;101307.97;;;-3.32;94.17
49341;BME280;35209;51.050;13.678;2023-02-28T23:34:25;101307.09;;;-3.13;93.88
49341;BME280;35209;51.050;13.678;2023-02-28T23:39:30;101305.31;;;-3.33;93.87
49341;BME280;35209;51.050;13.678;2023-02-28T23:44:32;101312.16;;;-3.53;94.15
49341;BME280;35209;51.050;13.678;2023-02-28T23:49:34;101321.75;;;-3.49;95.07
49341;BME280;35209;51.050;13.678;2023-02-28T23:54:36;101316.56;;;-3.31;94.82
49341;BME280;35209;51.050;13.678;2023-02-28T23:59:37;101313.34;;;-3.06;91.81
